Time;durP1;ratioP1;P1;durP2;ratioP2;P2;SDS_P1;SDS_P2;PMS_P1;PMS_P2;Temp;Humidity;BMP_temperature;BMP_pressure;BME280_temperature;BME280_humidity;BME280_pressure;Samples;Min_cycle;Max_cycle;Signal;HPM_P1;HPM_P2
2023/04/02 00:00:09;;;;;;;13.07;10.07;;;;;;;6.66;100.00;101188.03;5012724;28;20088;-49
2023/04/02 00:02:57;;;;;;;14.00;10.88;;;;;;;6.57;100.00;101185.53;5014245;28;20088;-47
2023/04/02 00:05:29;;;;;;;14.70;9.88;;;;;;;6.65;100.00;101199.41;5013868;28;20087;-47
2023/04/02 00:07:57;;;;;;;12.93;9.75;;;;;;;6.49;100.00;101177.78;5013614;28;20030;-47
2023/04/02 00:10:36;;;;;;;15.43;9.90;;;;;;;6.63;100.00;101194.19;5011684;28;20053;-48
2023/04/02 00:13:11;;;;;;;12.73;10.45;;;;;;;6.65;100.00;101194.19;4996089;28;20029;-47
2023/04/02 00:15:37;;;;;;;13.90;10.10;;;;;;;6.27;100.00;101150.13;5013528;28;20045;-50
2023/04/02 00:18:04;;;;;;;12.00;10.18;;;;;;;6.26;100.00;101156.22;5013489;28;20081;-48
2023/04/02 00:20:32;;;;;;;13.85;9.60;;;;;;;6.18;100.00;101155.44;5012156;28;20038;-47
2023/04/02 00:22:57;;;;;;;13.10;10.30;;;;;;;6.53;100.00;101228.31;5012011;28;20488;-49
2023/04/02 00:25:25;;;;;;;14.25;10.77;;;;;;;6.52;100.00;101216.97;5011665;28;20038;-48
2023/04/02 00:27:51;;;;;;;14.10;11.02;;;;;;;6.04;100.00;101159.94;5010821;28;20113;-49
2023/04/02 00:30:17;;;;;;;16.52;10.63;;;;;;;6.05;100.00;101164.25;4996013;28;20096;-47
2023/04/02 00:32:42;;;;;;;14.32;11.13;;;;;;;6.39;100.00;101249.34;5013343;28;20084;-45
2023/04/02 00:35:16;;;;;;;13.43;10.75;;;;;;;6.30;100.00;101243.34;5011884;28;20092;-48
2023/04/02 00:37:42;;;;;;;13.40;10.80;;;;;;;6.26;100.00;101252.06;5012058;28;20022;-48
2023/04/02 00:40:15;;;;;;;14.70;10.32;;;;;;;6.02;100.00;101198.25;5013412;28;20117;-47
2023/04/02 00:42:41;;;;;;;19.88;10.73;;;;;;;6.34;100.00;101245.03;5013173;28;20030;-49
2023/04/02 00:45:23;;;;;;;16.80;10.70;;;;;;;6.29;100.00;101254.66;5027295;28;20173;-50
2023/04/02 00:47:49;;;;;;;12.95;10.40;;;;;;;5.89;100.00;101197.50;5013155;28;20455;-45
2023/04/02 00:50:14;;;;;;;11.68;9.60;;;;;;;6.26;100.00;101273.88;5012013;28;20026;-46
2023/04/02 00:52:44;;;;;;;11.95;9.40;;;;;;;5.77;100.00;101187.09;5013102;28;20488;-46
2023/04/02 00:55:38;;;;;;;15.30;10.30;;;;;;;6.26;100.00;101273.00;5011847;28;20434;-45
2023/04/02 00:58:11;;;;;;;10.73;8.82;;;;;;;6.26;100.00;101280.81;5011624;28;20038;-47
2023/04/02 01:00:37;;;;;;;12.27;9.52;;;;;;;6.26;100.00;101283.44;5010966;28;20034;-49
2023/04/02 01:03:27;;;;;;;12.63;9.32;;;;;;;6.26;100.00;101286.94;5012745;28;20034;-48
2023/04/02 01:06:02;;;;;;;11.90;9.40;;;;;;;5.89;100.00;101231.47;5012782;28;20057;-49
2023/04/02 01:08:43;;;;;;;12.00;9.57;;;;;;;6.22;100.00;101301.75;5012749;28;20413;-46
2023/04/02 01:11:27;;;;;;;13.75;9.48;;;;;;;5.87;100.00;101242.78;5011518;28;20046;-47
2023/04/02 01:14:05;;;;;;;11.48;8.68;;;;;;;6.16;100.00;101314.00;5012510;28;20049;-48
2023/04/02 01:16:31;;;;;;;13.27;9.57;;;;;;;6.18;100.00;101307.03;5010116;28;20572;-46
2023/04/02 01:19:34;;;;;;;12.00;8.38;;;;;;;6.18;100.00;101310.53;5011198;28;20116;-49
2023/04/02 01:22:18;;;;;;;13.88;9.15;;;;;;;6.13;100.00;101320.13;5012705;28;20068;-46
2023/04/02 01:24:43;;;;;;;13.20;9.13;;;;;;;5.76;100.00;101268.06;5012095;28;20050;-49
2023/04/02 01:27:20;;;;;;;13.15;8.45;;;;;;;6.10;100.00;101334.97;5011149;28;20541;-49
2023/04/02 01:29:50;;;;;;;9.30;8.15;;;;;;;6.04;100.00;101322.78;5010512;28;20405;-47
2023/04/02 01:32:18;;;;;;;12.23;9.32;;;;;;;5.68;100.00;101262.91;5012350;28;20037;-51
2023/04/02 01:34:49;;;;;;;13.18;11.15;;;;;;;5.97;100.00;101326.34;5009663;28;20030;-49
2023/04/02 01:37:33;;;;;;;57.00;51.35;;;;;;;5.98;100.00;101340.28;5009556;28;20033;-48
2023/04/02 01:40:09;;;;;;;26.40;20.92;;;;;;;5.92;100.00;101332.47;5012240;28;20046;-47
2023/04/02 01:42:36;;;;;;;29.17;26.13;;;;;;;5.97;100.00;101347.25;5012046;28;20088;-49
2023/04/02 01:45:14;;;;;;;12.75;10.93;;;;;;;5.98;100.00;101354.19;5011939;28;20052;-49
2023/04/02 01:47:40;;;;;;;28.80;25.70;;;;;;;5.98;100.00;101350.72;5012204;28;20034;-52
2023/04/02 01:50:30;;;;;;;12.48;10.02;;;;;;;6.00;100.00;101357.69;5010075;28;20037;-51
2023/04/02 01:52:58;;;;;;;15.43;9.80;;;;;;;5.94;100.00;101369.91;5013017;28;20061;-47
2023/04/02 01:55:51;;;;;;;7.97;6.95;;;;;;;5.79;100.00;101338.59;5016016;28;20496;-48
2023/04/02 01:58:22;;;;;;;9.90;7.60;;;;;;;5.94;100.00;101380.34;5015883;28;20030;-47
2023/04/02 02:01:06;;;;;;;8.20;6.95;;;;;;;5.51;100.00;101304.78;5016052;28;20216;-48
2023/04/02 02:03:31;;;;;;;9.50;7.40;;;;;;;5.61;100.00;101323.88;5014454;28;20049;-48
2023/04/02 02:05:57;;;;;;;10.70;9.68;;;;;;;5.97;100.00;101383.81;5014927;28;20474;-47
2023/04/02 02:08:38;;;;;;;8.70;7.43;;;;;;;5.59;100.00;101318.66;5014090;28;20128;-48
2023/04/02 02:11:05;;;;;;;10.50;9.40;;;;;;;5.86;100.00;101388.25;5015822;28;20069;-47
2023/04/02 02:13:31;;;;;;;9.43;7.88;;;;;;;5.46;100.00;101332.63;5014608;28;20542;-52
2023/04/02 02:16:00;;;;;;;9.93;6.93;;;;;;;5.83;100.00;101403.91;5014394;28;20137;-46
2023/04/02 02:18:26;;;;;;;9.55;6.93;;;;;;;5.72;100.00;101394.38;5014535;28;20056;-50
2023/04/02 02:20:52;;;;;;;11.02;7.22;;;;;;;5.81;100.00;101405.63;5014259;28;20142;-47
2023/04/02 02:23:18;;;;;;;9.35;7.00;;;;;;;5.79;100.00;101407.38;5010295;28;20097;-46
2023/04/02 02:25:44;;;;;;;13.57;7.53;;;;;;;5.45;100.00;101357.03;4995952;28;20077;-48
2023/04/02 02:28:17;;;;;;;8.88;7.20;;;;;;;5.34;100.00;101348.34;5011162;28;20062;-50
2023/04/02 02:30:46;;;;;;;10.93;7.35;;;;;;;5.79;100.00;101432.63;5010967;28;20081;-48
2023/04/02 02:33:29;;;;;;;9.60;7.03;;;;;;;5.76;100.00;101427.41;4995778;28;20104;-48
2023/04/02 02:36:04;;;;;;;9.80;7.22;;;;;;;5.74;100.00;101429.16;4994233;28;20030;-48
2023/04/02 02:38:32;;;;;;;9.82;6.97;;;;;;;5.68;100.00;101435.28;4994801;28;20045;-46
2023/04/02 02:41:11;;;;;;;10.05;7.20;;;;;;;5.36;100.00;101374.44;5001778;28;20045;-48
2023/04/02 02:43:38;;;;;;;8.10;6.97;;;;;;;5.30;100.00;101377.94;5014241;28;20037;-48
2023/04/02 02:46:04;;;;;;;11.38;7.63;;;;;;;5.33;100.00;101380.56;4997599;28;20038;-50
2023/04/02 02:48:35;;;;;;;8.80;7.05;;;;;;;5.64;100.00;101442.25;5013907;28;20121;-50
2023/04/02 02:51:01;;;;;;;;;;;;;;;5.67;100.00;101452.69;5015639;28;20033;-48
2023/04/02 02:53:26;;;;;;;7.70;6.93;;;;;;;5.64;100.00;101454.44;5029948;28;20281;-47
2023/04/02 02:55:55;;;;;;;10.40;7.32;;;;;;;5.20;100.00;101389.25;5014330;28;20042;-49
2023/04/02 02:58:26;;;;;;;9.82;7.63;;;;;;;5.60;100.00;101474.47;5015051;28;20049;-51
2023/04/02 03:00:52;;;;;;;11.02;7.88;;;;;;;5.53;100.00;101472.75;5013640;28;20026;-48
2023/04/02 03:03:20;;;;;;;10.13;7.55;;;;;;;5.37;100.00;101451.91;5015284;28;20026;-52
2023/04/02 03:05:53;;;;;;;11.82;7.00;;;;;;;5.41;100.00;101479.72;5013676;28;20089;-49
2023/04/02 03:08:25;;;;;;;8.82;7.22;;;;;;;5.43;100.00;101483.22;5014631;28;20034;-50
2023/04/02 03:11:00;;;;;;;9.77;7.97;;;;;;;4.99;100.00;101424.06;5011256;28;20081;-47
2023/04/02 03:13:34;;;;;;;10.10;7.63;;;;;;;5.36;100.00;101492.78;4994895;28;20041;-46
2023/04/02 03:16:10;;;;;;;8.80;7.07;;;;;;;5.31;100.00;101509.34;4994300;28;20042;-49
2023/04/02 03:18:35;;;;;;;10.20;7.43;;;;;;;5.29;100.00;101517.16;4993947;28;20031;-50
2023/04/02 03:21:17;;;;;;;11.52;7.97;;;;;;;5.21;100.00;101508.47;4995096;28;20084;-48
2023/04/02 03:23:50;;;;;;;10.38;7.63;;;;;;;4.92;100.00;101464.09;4993493;28;20505;-49
2023/04/02 03:26:26;;;;;;;10.38;7.15;;;;;;;5.20;100.00;101522.38;4994710;28;20493;-49
2023/04/02 03:29:16;;;;;;;10.90;7.53;;;;;;;5.16;100.00;101525.00;4993720;28;20076;-47
2023/04/02 03:31:53;;;;;;;7.95;7.15;;;;;;;4.66;100.00;101460.59;4993886;28;20048;-46
2023/04/02 03:34:20;;;;;;;8.55;7.00;;;;;;;5.08;100.00;101536.28;4993492;28;20038;-48
2023/04/02 03:37:06;;;;;;;10.85;8.05;;;;;;;5.02;100.00;101523.22;4993832;28;20053;-46
2023/04/02 03:39:36;;;;;;;10.48;7.75;;;;;;;5.06;100.00;101538.03;4994866;28;20061;-47
2023/04/02 03:42:04;;;;;;;;;;;;;;;5.08;100.00;101546.72;4994177;28;20026;-47
2023/04/02 03:44:37;;;;;;;12.07;8.32;;;;;;;5.13;100.00;101558.91;5009348;28;19933;-48
2023/04/02 03:47:16;;;;;;;7.95;7.13;;;;;;;5.10;100.00;101567.59;5009927;28;20386;-48
2023/04/02 03:49:46;;;;;;;9.48;8.20;;;;;;;4.72;100.00;101509.28;4994216;28;20022;-46
2023/04/02 03:52:28;;;;;;;9.73;7.35;;;;;;;4.76;100.00;101530.13;4993547;28;20035;-47
2023/04/02 03:54:55;;;;;;;8.80;7.03;;;;;;;5.08;100.00;101587.59;4992859;28;20027;-48
2023/04/02 03:57:41;;;;;;;8.00;7.20;;;;;;;4.69;100.00;101538.81;4993220;28;20085;-46
2023/04/02 04:00:15;;;;;;;10.05;7.53;;;;;;;4.99;100.00;101598.03;4999353;28;20505;-44
2023/04/02 04:02:47;;;;;;;10.05;6.97;;;;;;;5.00;100.00;101618.91;5013956;28;20034;-47
2023/04/02 04:05:26;;;;;;;8.05;7.22;;;;;;;4.59;100.00;101544.88;5012406;28;20063;-45
2023/04/02 04:07:56;;;;;;;9.15;7.13;;;;;;;4.90;100.00;101603.22;5014044;28;20445;-44
2023/04/02 04:10:24;;;;;;;9.70;6.80;;;;;;;4.98;100.00;101633.69;5012421;28;20038;-48
2023/04/02 04:12:51;;;;;;;12.27;8.20;;;;;;;4.98;100.00;101619.75;4996113;28;20452;-45
2023/04/02 04:15:21;;;;;;;10.32;8.13;;;;;;;4.54;100.00;101546.59;5011036;28;20077;-46
2023/04/02 04:18:22;;;;;;;7.97;7.13;;;;;;;4.93;100.00;101629.31;5013440;28;20433;-46
2023/04/02 04:20:49;;;;;;;;;;;;;;;4.95;100.00;101638.00;5014220;28;20029;-48
2023/04/02 04:23:28;;;;;;;10.70;8.80;;;;;;;4.47;100.00;101568.28;5028962;28;19913;-45
2023/04/02 04:26:00;;;;;;;9.23;7.68;;;;;;;4.54;100.00;101604.84;5011291;28;20028;-50
2023/04/02 04:28:31;;;;;;;9.82;8.27;;;;;;;4.89;100.00;101669.28;5013466;28;20030;-49
2023/04/02 04:31:16;;;;;;;8.65;7.32;;;;;;;4.77;100.00;101656.19;5011702;28;20026;-47
2023/04/02 04:33:44;;;;;;;9.05;7.95;;;;;;;4.50;100.00;101610.88;4992610;28;20034;-47
2023/04/02 04:36:20;;;;;;;8.82;7.95;;;;;;;4.10;100.00;101540.31;4992317;28;20121;-47
2023/04/02 04:38:54;;;;;;;10.40;8.25;;;;;;;4.48;100.00;101623.06;4992379;28;20034;-48
2023/04/02 04:41:29;;;;;;;9.48;8.48;;;;;;;4.33;100.00;101603.84;4993362;28;20042;-45
2023/04/02 04:44:05;;;;;;;8.75;7.85;;;;;;;4.41;100.00;101623.88;4992556;28;20030;-44
2023/04/02 04:46:54;;;;;;;11.57;7.97;;;;;;;4.72;100.00;101676.19;4991971;28;20032;-46
2023/04/02 04:49:26;;;;;;;8.52;7.25;;;;;;;4.63;100.00;101678.75;4991743;28;20030;-47
2023/04/02 04:51:56;;;;;;;7.63;6.90;;;;;;;4.22;100.00;101631.59;4993130;28;20169;-47
2023/04/02 04:54:26;;;;;;;8.18;6.32;;;;;;;4.62;100.00;101703.94;4992161;28;20065;-46
2023/04/02 04:56:55;;;;;;;8.50;7.07;;;;;;;4.58;100.00;101714.34;4992398;28;20045;-49
2023/04/02 04:59:39;;;;;;;8.77;6.72;;;;;;;4.53;100.00;101707.38;4992228;28;20041;-46
2023/04/02 05:02:10;;;;;;;6.70;6.00;;;;;;;4.57;100.00;101723.03;5003087;28;20430;-47
2023/04/02 05:04:39;;;;;;;;;;;;;;;4.57;100.00;101723.91;4998368;28;20037;-46
2023/04/02 05:07:23;;;;;;;7.57;5.97;;;;;;;4.50;100.00;101725.59;5024628;28;19956;-45
2023/04/02 05:10:05;;;;;;;8.18;5.78;;;;;;;4.44;100.00;101727.28;4993046;28;20417;-47
2023/04/02 05:12:39;;;;;;;8.00;6.22;;;;;;;4.42;100.00;101739.44;5008390;28;20028;-49
2023/04/02 05:15:26;;;;;;;7.65;6.70;;;;;;;4.43;100.00;101736.88;4991343;28;20417;-47
2023/04/02 05:18:16;;;;;;;7.40;6.13;;;;;;;4.38;100.00;101746.38;4992659;28;20081;-45
2023/04/02 05:21:15;;;;;;;11.40;6.50;;;;;;;4.41;100.00;101758.53;4991233;28;20033;-45
2023/04/02 05:23:58;;;;;;;6.97;5.85;;;;;;;4.40;100.00;101757.69;5009881;28;20050;-45
2023/04/02 05:26:36;;;;;;;7.82;6.07;;;;;;;4.34;100.00;101781.09;5012193;28;20057;-46
2023/04/02 05:29:32;;;;;;;9.40;6.63;;;;;;;4.33;100.00;101781.97;4997124;28;20397;-48
2023/04/02 05:32:05;;;;;;;10.40;7.05;;;;;;;4.28;100.00;101786.28;4990872;28;20027;-48
2023/04/02 05:34:38;;;;;;;7.75;6.97;;;;;;;4.29;100.00;101792.38;5001868;28;20046;-48
2023/04/02 05:37:05;;;;;;;10.65;7.10;;;;;;;3.85;100.00;101725.09;4992078;28;20069;-47
2023/04/02 05:39:33;;;;;;;11.18;6.82;;;;;;;4.06;100.00;101778.25;5005032;28;20046;-50
2023/04/02 05:42:00;;;;;;;8.02;7.22;;;;;;;4.16;100.00;101803.53;5012134;28;20033;-46
2023/04/02 05:44:35;;;;;;;8.68;6.40;;;;;;;4.19;100.00;101813.97;5010507;28;20034;-46
2023/04/02 05:47:05;;;;;;;8.45;6.20;;;;;;;4.12;100.00;101823.47;5010712;28;20030;-44
2023/04/02 05:49:50;;;;;;;7.80;5.63;;;;;;;3.63;100.00;101749.19;4999176;28;20113;-47
2023/04/02 05:52:26;;;;;;;8.10;5.38;;;;;;;3.94;100.00;101837.16;4990780;28;20041;-47
2023/04/02 05:54:57;;;;;;;8.13;5.70;;;;;;;3.90;100.00;101834.53;4996592;28;20437;-47
2023/04/02 05:57:30;;;;;;;7.57;5.18;;;;;;;3.52;100.00;101779.44;5007133;28;20089;-47
2023/04/02 05:59:57;;;;;;;7.80;5.20;;;;;;;3.32;100.00;101778.34;4992277;28;20397;-45
2023/04/02 06:02:30;;;;;;;7.63;5.60;;;;;;;3.67;100.00;101847.31;4991157;28;20460;-47
2023/04/02 06:05:00;;;;;;;5.90;4.63;;;;;;;3.33;100.00;101806.97;4997333;28;20049;-47
2023/04/02 06:07:32;;;;;;;5.53;4.75;;;;;;;3.72;100.00;101874.25;4991249;28;20034;-48
2023/04/02 06:10:05;;;;;;;9.07;5.60;;;;;;;3.67;100.00;101888.97;4999200;28;20038;-47
2023/04/02 06:13:02;;;;;;;10.52;5.82;;;;;;;3.66;100.00;101899.34;5010839;28;20072;-49
2023/04/02 06:15:28;;;;;;;6.80;5.03;;;;;;;3.31;100.00;101823.41;4999328;28;20050;-45
2023/04/02 06:18:07;;;;;;;6.55;5.18;;;;;;;3.58;100.00;101895.78;4992170;28;20031;-48
2023/04/02 06:20:33;;;;;;;6.32;4.85;;;;;;;3.68;100.00;101913.25;5001136;28;20492;-46
2023/04/02 06:23:06;;;;;;;6.05;4.63;;;;;;;3.62;100.00;101908.00;5011567;28;20034;-48
2023/04/02 06:25:43;;;;;;;13.40;4.38;;;;;;;3.25;100.00;101851.97;5008371;28;20112;-46
2023/04/02 06:28:23;;;;;;;8.68;4.28;;;;;;;3.58;100.00;101933.09;5010523;28;20088;-45
2023/04/02 06:30:52;;;;;;;5.25;4.00;;;;;;;3.15;100.00;101869.16;5009471;28;20034;-45
2023/04/02 06:33:20;;;;;;;6.88;4.75;;;;;;;3.57;100.00;101930.47;5009922;28;20432;-46
2023/04/02 06:35:49;;;;;;;5.07;3.80;;;;;;;3.25;100.00;101897.06;4996017;28;20038;-45
2023/04/02 06:38:18;;;;;;;9.65;4.68;;;;;;;3.16;100.00;101891.72;4991025;28;20070;-43
2023/04/02 06:41:20;;;;;;;7.65;4.25;;;;;;;3.57;100.00;101956.50;4994129;28;20050;-46
2023/04/02 06:43:50;;;;;;;4.10;3.70;;;;;;;3.61;100.00;101976.53;5005085;28;20079;-46
2023/04/02 06:46:21;;;;;;;7.43;3.63;;;;;;;2.42;100.00;101799.63;4993078;28;20589;-44
2023/04/02 06:48:47;;;;;;;5.85;4.03;;;;;;;3.55;100.00;101979.94;4994285;28;20046;-45
2023/04/02 06:51:15;;;;;;;7.47;4.35;;;;;;;2.83;100.00;101842.69;5005501;28;20489;-44
2023/04/02 06:53:46;;;;;;;8.18;3.55;;;;;;;3.69;100.00;101977.50;4994031;28;20038;-44
2023/04/02 06:56:30;;;;;;;;;;;;;;;3.74;100.00;101987.13;4995667;28;20270;-44
2023/04/02 06:58:57;;;;;;;7.15;4.22;;;;;;;3.67;100.00;101990.50;5005415;28;19921;-43
2023/04/02 07:01:27;;;;;;;9.50;4.15;;;;;;;3.72;100.00;102007.06;5000851;28;20042;-44
2023/04/02 07:03:54;;;;;;;7.10;3.80;;;;;;;3.78;100.00;102008.88;4994037;28;20116;-45
2023/04/02 07:06:20;;;;;;;7.13;4.68;;;;;;;3.79;100.00;102019.34;5002273;28;20409;-46
2023/04/02 07:08:46;;;;;;;4.70;3.40;;;;;;;3.75;100.00;102008.84;4995250;28;20030;-46
2023/04/02 07:11:14;;;;;;;5.57;3.85;;;;;;;3.29;100.00;101944.84;4993456;28;20481;-45
2023/04/02 07:13:40;;;;;;;6.18;3.42;;;;;;;3.76;100.00;102034.03;4993905;28;20045;-45
2023/04/02 07:16:07;;;;;;;4.40;3.65;;;;;;;3.39;100.00;101972.72;5003694;28;20058;-46
2023/04/02 07:18:33;;;;;;;7.65;3.75;;;;;;;3.75;100.00;102040.09;4994003;28;20043;-44
2023/04/02 07:20:58;;;;;;;5.93;3.97;;;;;;;3.87;100.00;102055.88;4994727;28;20053;-46
2023/04/02 07:23:24;;;;;;;6.15;4.15;;;;;;;3.73;100.00;102050.50;4994555;28;20038;-44
2023/04/02 07:25:52;;;;;;;8.10;4.28;;;;;;;3.69;100.00;102019.16;4998253;28;20064;-49
2023/04/02 07:28:17;;;;;;;6.65;4.20;;;;;;;3.96;100.00;102041.28;5013855;28;20125;-49
2023/04/02 07:30:43;;;;;;;6.75;4.05;;;;;;;3.82;100.00;101992.44;5007454;28;20129;-46
2023/04/02 07:33:13;;;;;;;7.03;3.95;;;;;;;3.09;100.00;101871.72;5014501;28;20041;-46
2023/04/02 07:35:39;;;;;;;6.97;3.67;;;;;;;3.85;100.00;101993.34;5012657;28;20069;-47
2023/04/02 07:38:05;;;;;;;7.07;4.07;;;;;;;3.62;100.00;102002.56;4994612;28;20401;-48
2023/04/02 07:40:30;;;;;;;14.27;3.92;;;;;;;3.61;100.00;102003.44;4994229;28;20477;-46
2023/04/02 07:42:55;;;;;;;6.20;3.42;;;;;;;4.00;100.00;102086.44;4994831;28;20038;-45
2023/04/02 07:45:20;;;;;;;6.13;3.67;;;;;;;4.11;100.00;102094.44;4992569;28;20042;-46
2023/04/02 07:47:46;;;;;;;5.85;3.55;;;;;;;4.09;100.00;102094.41;4999734;28;20448;-45
2023/04/02 07:50:12;;;;;;;4.45;2.95;;;;;;;4.10;100.00;102098.78;5012075;28;20374;-46
2023/04/02 07:52:41;;;;;;;8.43;3.42;;;;;;;4.21;100.00;102111.94;5013898;28;20045;-48
2023/04/02 07:55:12;;;;;;;5.85;3.22;;;;;;;4.02;100.00;102103.00;5012840;28;20068;-49
2023/04/02 07:57:48;;;;;;;4.30;3.40;;;;;;;3.81;100.00;102077.53;5011859;28;20088;-49
2023/04/02 08:00:14;;;;;;;6.20;3.35;;;;;;;3.98;100.00;102107.28;5013839;28;20034;-44
2023/04/02 08:02:40;;;;;;;4.57;3.08;;;;;;;4.02;100.00;102117.75;5010938;28;20100;-48
2023/04/02 08:05:06;;;;;;;4.78;2.90;;;;;;;3.84;100.00;102048.91;4994553;28;20039;-47
2023/04/02 08:07:32;;;;;;;8.25;3.40;;;;;;;4.26;100.00;102123.31;5026369;28;20338;-47
2023/04/02 08:09:57;;;;;;;4.13;2.55;;;;;;;3.83;100.00;102067.09;5013967;28;20092;-46
2023/04/02 08:12:22;;;;;;;21.90;16.65;;;;;;;4.24;100.00;102138.91;5013545;28;20037;-46
2023/04/02 08:14:48;;;;;;;7.25;3.78;;;;;;;3.80;100.00;102067.06;5013287;28;20062;-48
2023/04/02 08:17:14;;;;;;;6.10;3.53;;;;;;;4.01;100.00;102127.28;4994582;28;20073;-48
2023/04/02 08:19:40;;;;;;;6.43;3.83;;;;;;;3.52;100.00;102091.81;5003024;28;20136;-45
2023/04/02 08:22:06;;;;;;;4.97;3.25;;;;;;;3.58;100.00;102097.13;5013516;28;20116;-45
2023/04/02 08:24:31;;;;;;;7.60;3.28;;;;;;;4.07;100.00;102173.41;4994432;28;20034;-46
2023/04/02 08:26:56;;;;;;;4.57;2.95;;;;;;;4.13;100.00;102174.38;5013420;28;20033;-48
2023/04/02 08:29:22;;;;;;;7.43;3.45;;;;;;;4.11;100.00;102168.28;5013881;28;20038;-46
2023/04/02 08:31:47;;;;;;;5.78;3.08;;;;;;;4.00;100.00;102188.06;5013184;28;20045;-48
2023/04/02 08:34:13;;;;;;;6.63;3.53;;;;;;;3.50;100.00;102114.34;5012424;28;20085;-48
2023/04/02 08:36:40;;;;;;;5.32;2.92;;;;;;;3.91;100.00;102195.75;5013878;28;20489;-44
2023/04/02 08:39:10;;;;;;;5.22;3.33;;;;;;;3.57;100.00;102144.81;5012246;28;20037;-47
2023/04/02 08:41:44;;;;;;;3.63;2.80;;;;;;;4.33;100.00;102212.03;5006428;28;20053;-44
2023/04/02 08:44:15;;;;;;;5.90;3.25;;;;;;;4.58;100.00;102208.06;5011806;28;20037;-48
2023/04/02 08:46:48;;;;;;;4.70;2.92;;;;;;;4.76;100.00;102218.72;5012996;28;20497;-45
2023/04/02 08:49:23;;;;;;;4.95;3.20;;;;;;;4.89;100.00;102201.50;5012203;28;20385;-45
2023/04/02 08:51:49;;;;;;;4.18;2.60;;;;;;;5.25;100.00;102216.72;5012980;28;20080;-47
2023/04/02 08:54:37;;;;;;;3.50;2.67;;;;;;;5.27;100.00;102210.66;5013054;28;20038;-49
2023/04/02 08:57:36;;;;;;;6.10;2.60;;;;;;;5.19;100.00;102246.25;5011588;28;20084;-45
2023/04/02 09:00:25;;;;;;;3.78;2.53;;;;;;;4.61;100.00;102231.59;4995991;28;20042;-46
2023/04/02 09:02:59;;;;;;;4.35;2.92;;;;;;;4.57;100.00;102234.09;5006623;28;20449;-45
2023/04/02 09:05:30;;;;;;;4.07;2.85;;;;;;;4.42;100.00;102229.53;5008352;28;20033;-48
2023/04/02 09:07:59;;;;;;;5.03;2.67;;;;;;;4.06;100.00;102189.91;4993041;28;20497;-44
2023/04/02 09:10:37;;;;;;;3.17;2.30;;;;;;;4.02;100.00;102177.69;4991472;28;20457;-49
2023/04/02 09:13:12;;;;;;;4.47;2.60;;;;;;;4.62;100.00;102188.97;4993046;28;20125;-47
2023/04/02 09:15:38;;;;;;;3.92;2.20;;;;;;;5.69;100.00;102187.56;4996884;28;20769;-47
2023/04/02 09:18:15;;;;;;;5.85;2.28;;;;;;;7.43;100.00;102177.22;4992892;28;20177;-46
2023/04/02 09:20:41;;;;;;;3.63;1.73;;;;;;;8.68;100.00;102297.00;4991896;28;20029;-43
2023/04/02 09:23:13;;;;;;;5.45;2.28;;;;;;;8.09;100.00;102213.06;4993017;28;20034;-45
2023/04/02 09:25:46;;;;;;;4.55;2.13;;;;;;;8.79;100.00;102281.22;4994319;28;20040;-44
2023/04/02 09:28:12;;;;;;;4.85;2.30;;;;;;;8.47;100.00;102245.44;5027489;28;20034;-43
2023/04/02 09:30:55;;;;;;;2.63;1.75;;;;;;;9.76;100.00;102309.75;5011191;28;20101;-48
2023/04/02 09:33:40;;;;;;;2.90;1.80;;;;;;;10.49;100.00;102308.38;5010073;28;20034;-45
2023/04/02 09:36:16;;;;;;;4.07;1.90;;;;;;;11.69;100.00;102312.28;5012529;28;20542;-49
2023/04/02 09:38:56;;;;;;;3.05;1.63;;;;;;;11.34;100.00;102318.03;5012309;28;20045;-46
2023/04/02 09:41:26;;;;;;;3.88;1.92;;;;;;;10.86;100.00;102323.84;5010634;28;20078;-45
2023/04/02 09:44:30;;;;;;;3.00;1.75;;;;;;;10.81;100.00;102329.16;5011163;28;20034;-46
2023/04/02 09:47:03;;;;;;;2.30;1.70;;;;;;;10.96;100.00;102317.59;5012014;28;20038;-46
2023/04/02 09:49:31;;;;;;;2.97;1.50;;;;;;;10.37;100.00;102283.91;5011881;28;20061;-46
2023/04/02 09:52:24;;;;;;;3.20;2.10;;;;;;;9.68;100.00;102329.97;5012318;28;20026;-45
2023/04/02 09:55:18;;;;;;;3.17;1.75;;;;;;;9.31;100.00;102340.63;5012180;28;20041;-48
2023/04/02 09:57:45;;;;;;;3.47;2.08;;;;;;;8.80;100.00;102327.63;4999025;28;20038;-44
2023/04/02 10:00:11;;;;;;;3.85;1.83;;;;;;;8.95;100.00;102332.84;5011487;28;20033;-47
2023/04/02 10:02:37;;;;;;;3.17;2.28;;;;;;;9.11;100.00;102349.47;5006072;28;20188;-46
2023/04/02 10:05:05;;;;;;;4.90;2.72;;;;;;;9.61;100.00;102334.38;5005806;28;20512;-50
2023/04/02 10:07:37;;;;;;;3.13;1.77;;;;;;;10.59;100.00;102338.16;5010336;28;20076;-45
2023/04/02 10:10:36;;;;;;;2.97;1.83;;;;;;;11.91;100.00;102350.69;4991102;28;20066;-45
2023/04/02 10:13:21;;;;;;;4.80;2.22;;;;;;;12.76;100.00;102352.88;4992911;28;20084;-46
2023/04/02 10:15:53;;;;;;;5.00;1.88;;;;;;;13.46;100.00;102310.13;4998393;28;20519;-47
2023/04/02 10:18:27;;;;;;;5.53;1.90;;;;;;;12.50;100.00;102322.50;5015764;28;20029;-48
2023/04/02 10:20:54;;;;;;;5.00;1.75;;;;;;;12.38;100.00;102313.91;5003881;28;20037;-49
2023/04/02 10:23:23;;;;;;;3.03;1.27;;;;;;;12.00;100.00;102357.63;4994814;28;20118;-49
2023/04/02 10:26:12;;;;;;;4.18;1.70;;;;;;;11.96;100.00;102317.22;4994920;28;20065;-50
2023/04/02 10:28:41;;;;;;;3.80;1.50;;;;;;;12.32;100.00;102372.09;4995965;28;20040;-45
2023/04/02 10:31:16;;;;;;;3.95;1.60;;;;;;;12.03;100.00;102369.00;4996076;28;20109;-45
2023/04/02 10:33:46;;;;;;;2.70;1.45;;;;;;;11.36;100.00;102371.59;4996570;28;20065;-46
2023/04/02 10:36:35;;;;;;;2.70;1.40;;;;;;;11.82;100.00;102378.09;4994857;28;20026;-47
2023/04/02 10:39:14;;;;;;;4.20;2.22;;;;;;;11.87;100.00;102329.66;4995823;28;20046;-47
2023/04/02 10:41:55;;;;;;;5.05;1.90;;;;;;;12.49;100.00;102392.97;4994804;28;20034;-46
2023/04/02 10:44:43;;;;;;;3.40;1.60;;;;;;;12.61;100.00;102341.72;4994865;28;20504;-48
2023/04/02 10:47:14;;;;;;;3.15;1.77;;;;;;;13.19;100.00;102399.75;4994589;28;20169;-45
2023/04/02 10:50:02;;;;;;;3.67;1.73;;;;;;;13.33;100.00;102410.94;4995799;28;20446;-46
2023/04/02 10:52:30;;;;;;;4.40;1.48;;;;;;;13.35;100.00;102378.25;5010465;28;20041;-46
2023/04/02 10:55:00;;;;;;;2.83;1.33;;;;;;;13.67;100.00;102408.47;4993918;28;20026;-45
2023/04/02 10:57:27;;;;;;;2.83;1.33;;;;;;;13.90;100.00;102414.16;5005380;28;20041;-46
2023/04/02 10:59:58;;;;;;;4.18;1.45;;;;;;;13.87;100.00;102409.81;5014693;28;20034;-48
2023/04/02 11:02:54;;;;;;;4.00;1.67;;;;;;;14.82;96.20;102416.50;5014497;28;20026;-48
2023/04/02 11:05:29;;;;;;;2.30;1.50;;;;;;;14.53;99.19;102411.91;5014887;28;20400;-46
2023/04/02 11:08:02;;;;;;;2.95;1.55;;;;;;;14.94;92.21;102347.25;5001825;28;20068;-47
2023/04/02 11:10:31;;;;;;;3.72;1.70;;;;;;;15.64;97.08;102420.50;4993621;28;20077;-49
2023/04/02 11:13:08;;;;;;;3.50;1.88;;;;;;;15.44;87.63;102421.00;4994824;28;20038;-45
2023/04/02 11:15:34;;;;;;;5.32;1.63;;;;;;;14.72;85.48;102385.81;4994996;28;20042;-46
2023/04/02 11:18:00;;;;;;;4.82;1.33;;;;;;;14.73;91.86;102425.53;4996650;28;20037;-45
2023/04/02 11:20:47;;;;;;;2.15;1.30;;;;;;;15.14;91.25;102430.69;5014778;28;20362;-46
2023/04/02 11:23:16;;;;;;;2.47;1.48;;;;;;;15.39;90.19;102376.94;5014990;28;20026;-45
2023/04/02 11:25:42;;;;;;;2.88;1.40;;;;;;;14.36;85.94;102377.00;5013476;28;20029;-45
2023/04/02 11:28:27;;;;;;;3.88;1.50;;;;;;;15.17;87.12;102433.25;5014839;28;20056;-45
2023/04/02 11:30:53;;;;;;;5.68;1.63;;;;;;;14.87;91.83;102419.88;5013358;28;20022;-47
2023/04/02 11:33:32;;;;;;;3.08;1.38;;;;;;;15.81;92.10;102436.81;5013219;28;20106;-46
2023/04/02 11:35:57;;;;;;;7.75;1.90;;;;;;;16.02;84.58;102430.88;5004963;28;20088;-47
2023/04/02 11:38:23;;;;;;;2.13;1.33;;;;;;;16.73;80.25;102433.09;4995151;28;20125;-46
2023/04/02 11:40:56;;;;;;;3.40;2.00;;;;;;;17.09;74.62;102447.84;4994777;28;20073;-47
2023/04/02 11:43:34;;;;;;;3.10;1.55;;;;;;;15.85;82.92;102440.25;4993415;28;20077;-46
2023/04/02 11:46:17;;;;;;;3.90;1.60;;;;;;;15.76;91.10;102430.78;4994723;28;20089;-46
2023/04/02 11:48:43;;;;;;;4.75;1.63;;;;;;;16.37;85.41;102386.41;4994973;28;20037;-47